sensor_id;sensor_type;location;lat;lon;timestamp;temperature;humidity
21518;DHT22;61765;45.794;24.150;2023-07-30T00:06:24;25.20;83.90
21518;DHT22;61765;45.794;24.150;2023-07-30T00:14:29;24.90;84.70
21518;DHT22;61765;45.794;24.150;2023-07-30T00:22:38;24.90;84.70
21518;DHT22;61765;45.794;24.150;2023-07-30T00:30:43;24.70;84.70
21518;DHT22;61765;45.794;24.150;2023-07-30T00:38:51;24.70;85.30
21518;DHT22;61765;45.794;24.150;2023-07-30T00:46:57;24.60;85.00
21518;DHT22;61765;45.794;24.150;2023-07-30T00:55:07;24.60;84.90
21518;DHT22;61765;45.794;24.150;2023-07-30T01:03:13;24.60;84.80
21518;DHT22;61765;45.794;24.150;2023-07-30T01:11:21;24.60;84.80
21518;DHT22;61765;45.794;24.150;2023-07-30T01:19:26;24.60;84.90
21518;DHT22;61765;45.794;24.150;2023-07-30T01:27:38;24.40;84.80
21518;DHT22;61765;45.794;24.150;2023-07-30T01:35:44;24.30;85.10
21518;DHT22;61765;45.794;24.150;2023-07-30T01:43:53;24.40;84.90
21518;DHT22;61765;45.794;24.150;2023-07-30T01:51:59;24.30;85.00
21518;DHT22;61765;45.794;24.150;2023-07-30T02:00:08;24.30;84.90
21518;DHT22;61765;45.794;24.150;2023-07-30T02:08:14;24.50;84.10
21518;DHT22;61765;45.794;24.150;2023-07-30T02:16:22;24.00;84.80
21518;DHT22;61765;45.794;24.150;2023-07-30T02:24:28;24.10;84.80
21518;DHT22;61765;45.794;24.150;2023-07-30T02:32:36;24.00;85.00
21518;DHT22;61765;45.794;24.150;2023-07-30T02:40:41;23.90;84.40
21518;DHT22;61765;45.794;24.150;2023-07-30T02:48:49;23.90;85.80
21518;DHT22;61765;45.794;24.150;2023-07-30T02:56:55;23.90;85.40
21518;DHT22;61765;45.794;24.150;2023-07-30T03:05:03;23.70;85.30
21518;DHT22;61765;45.794;24.150;2023-07-30T03:13:09;23.80;85.70
21518;DHT22;61765;45.794;24.150;2023-07-30T03:21:17;23.80;85.00
21518;DHT22;61765;45.794;24.150;2023-07-30T03:29:22;23.90;85.00
21518;DHT22;61765;45.794;24.150;2023-07-30T03:37:30;23.90;85.30
21518;DHT22;61765;45.794;24.150;2023-07-30T03:45:36;23.80;85.20
21518;DHT22;61765;45.794;24.150;2023-07-30T03:53:44;24.00;84.70
21518;DHT22;61765;45.794;24.150;2023-07-30T04:01:50;24.00;84.80
21518;DHT22;61765;45.794;24.150;2023-07-30T04:09:58;24.20;84.00
21518;DHT22;61765;45.794;24.150;2023-07-30T04:18:03;24.20;83.70
21518;DHT22;61765;45.794;24.150;2023-07-30T04:26:12;24.40;83.10
21518;DHT22;61765;45.794;24.150;2023-07-30T04:34:17;24.60;82.80
21518;DHT22;61765;45.794;24.150;2023-07-30T04:42:25;24.80;82.30
21518;DHT22;61765;45.794;24.150;2023-07-30T04:50:31;25.00;81.10
21518;DHT22;61765;45.794;24.150;2023-07-30T04:58:39;25.10;80.90
21518;DHT22;61765;45.794;24.150;2023-07-30T05:06:44;25.40;80.60
21518;DHT22;61765;45.794;24.150;2023-07-30T05:14:52;25.50;80.60
21518;DHT22;61765;45.794;24.150;2023-07-30T05:22:58;25.40;80.80
21518;DHT22;61765;45.794;24.150;2023-07-30T05:31:07;25.70;80.20
21518;DHT22;61765;45.794;24.150;2023-07-30T05:39:12;26.00;80.00
21518;DHT22;61765;45.794;24.150;2023-07-30T05:47:20;26.40;79.40
21518;DHT22;61765;45.794;24.150;2023-07-30T05:55:26;26.70;79.20
21518;DHT22;61765;45.794;24.150;2023-07-30T06:03:34;27.30;78.20
21518;DHT22;61765;45.794;24.150;2023-07-30T06:11:39;28.20;76.00
21518;DHT22;61765;45.794;24.150;2023-07-30T06:19:48;29.00;74.60
21518;DHT22;61765;45.794;24.150;2023-07-30T06:27:53;29.60;73.50
21518;DHT22;61765;45.794;24.150;2023-07-30T06:36:04;30.20;70.90
21518;DHT22;61765;45.794;24.150;2023-07-30T06:44:09;30.70;70.50
21518;DHT22;61765;45.794;24.150;2023-07-30T06:52:17;30.80;68.60
21518;DHT22;61765;45.794;24.150;2023-07-30T07:00:23;30.50;69.10
21518;DHT22;61765;45.794;24.150;2023-07-30T07:08:31;30.50;68.90
21518;DHT22;61765;45.794;24.150;2023-07-30T07:16:37;31.10;67.70
21518;DHT22;61765;45.794;24.150;2023-07-30T07:24:45;31.50;67.40
21518;DHT22;61765;45.794;24.150;2023-07-30T07:32:51;31.80;65.60
21518;DHT22;61765;45.794;24.150;2023-07-30T07:41:01;32.10;66.90
21518;DHT22;61765;45.794;24.150;2023-07-30T07:49:07;32.80;66.10
21518;DHT22;61765;45.794;24.150;2023-07-30T07:57:15;33.60;64.30
21518;DHT22;61765;45.794;24.150;2023-07-30T08:05:20;33.80;62.20
21518;DHT22;61765;45.794;24.150;2023-07-30T08:13:29;33.80;62.20
21518;DHT22;61765;45.794;24.150;2023-07-30T08:21:35;33.90;61.60
21518;DHT22;61765;45.794;24.150;2023-07-30T08:29:43;34.30;60.10
21518;DHT22;61765;45.794;24.150;2023-07-30T08:37:49;34.20;61.10
21518;DHT22;61765;45.794;24.150;2023-07-30T08:45:57;34.50;60.50
21518;DHT22;61765;45.794;24.150;2023-07-30T08:54:03;34.70;59.90
21518;DHT22;61765;45.794;24.150;2023-07-30T09:02:18;34.90;59.50
21518;DHT22;61765;45.794;24.150;2023-07-30T09:10:26;35.40;59.30
21518;DHT22;61765;45.794;24.150;2023-07-30T09:18:39;35.50;57.10
21518;DHT22;61765;45.794;24.150;2023-07-30T09:26:45;35.80;57.80
21518;DHT22;61765;45.794;24.150;2023-07-30T09:34:54;35.90;56.30
21518;DHT22;61765;45.794;24.150;2023-07-30T09:42:59;35.70;55.60
21518;DHT22;61765;45.794;24.150;2023-07-30T09:51:08;35.40;56.50
21518;DHT22;61765;45.794;24.150;2023-07-30T09:59:14;35.80;56.70
21518;DHT22;61765;45.794;24.150;2023-07-30T10:07:23;35.90;56.80
21518;DHT22;61765;45.794;24.150;2023-07-30T10:15:30;36.20;55.20
21518;DHT22;61765;45.794;24.150;2023-07-30T10:23:57;36.30;56.40
21518;DHT22;61765;45.794;24.150;2023-07-30T10:32:05;36.90;54.70
21518;DHT22;61765;45.794;24.150;2023-07-30T10:40:18;37.00;55.10
21518;DHT22;61765;45.794;24.150;2023-07-30T10:48:34;37.10;55.30
21518;DHT22;61765;45.794;24.150;2023-07-30T10:56:42;37.10;54.90
21518;DHT22;61765;45.794;24.150;2023-07-30T11:04:48;36.70;55.40
21518;DHT22;61765;45.794;24.150;2023-07-30T11:12:57;36.60;55.00
21518;DHT22;61765;45.794;24.150;2023-07-30T11:21:04;36.90;55.70
21518;DHT22;61765;45.794;24.150;2023-07-30T11:29:19;37.20;54.00
21518;DHT22;61765;45.794;24.150;2023-07-30T11:37:25;37.70;54.70
21518;DHT22;61765;45.794;24.150;2023-07-30T11:45:33;37.70;53.70
21518;DHT22;61765;45.794;24.150;2023-07-30T11:53:46;38.70;54.80
21518;DHT22;61765;45.794;24.150;2023-07-30T12:01:54;39.80;52.70
21518;DHT22;61765;45.794;24.150;2023-07-30T12:10:07;40.70;48.60
21518;DHT22;61765;45.794;24.150;2023-07-30T12:18:16;39.90;48.40
21518;DHT22;61765;45.794;24.150;2023-07-30T12:26:21;39.20;50.90
21518;DHT22;61765;45.794;24.150;2023-07-30T12:34:29;41.30;51.50
21518;DHT22;61765;45.794;24.150;2023-07-30T12:42:37;49.50;40.90
21518;DHT22;61765;45.794;24.150;2023-07-30T12:50:45;47.80;39.80
21518;DHT22;61765;45.794;24.150;2023-07-30T12:58:51;43.20;43.50
21518;DHT22;61765;45.794;24.150;2023-07-30T13:06:59;39.70;47.80
21518;DHT22;61765;45.794;24.150;2023-07-30T13:15:05;37.90;49.70
21518;DHT22;61765;45.794;24.150;2023-07-30T13:23:13;36.70;52.40
21518;DHT22;61765;45.794;24.150;2023-07-30T13:31:19;35.90;53.40
21518;DHT22;61765;45.794;24.150;2023-07-30T13:39:27;35.40;53.50
21518;DHT22;61765;45.794;24.150;2023-07-30T13:47:32;34.80;52.90
21518;DHT22;61765;45.794;24.150;2023-07-30T13:55:41;34.30;54.40
21518;DHT22;61765;45.794;24.150;2023-07-30T14:03:46;33.90;58.10
21518;DHT22;61765;45.794;24.150;2023-07-30T14:11:54;33.30;62.00
21518;DHT22;61765;45.794;24.150;2023-07-30T14:20:00;32.80;68.10
21518;DHT22;61765;45.794;24.150;2023-07-30T14:28:08;31.90;70.40
21518;DHT22;61765;45.794;24.150;2023-07-30T14:36:13;31.10;73.00
21518;DHT22;61765;45.794;24.150;2023-07-30T14:44:21;30.70;75.40
21518;DHT22;61765;45.794;24.150;2023-07-30T14:52:27;30.30;77.00
21518;DHT22;61765;45.794;24.150;2023-07-30T15:00:35;30.00;77.90
21518;DHT22;61765;45.794;24.150;2023-07-30T15:08:43;29.90;76.90
21518;DHT22;61765;45.794;24.150;2023-07-30T15:16:51;29.30;76.40
21518;DHT22;61765;45.794;24.150;2023-07-30T15:24:58;29.10;78.00
21518;DHT22;61765;45.794;24.150;2023-07-30T15:33:07;29.50;76.90
21518;DHT22;61765;45.794;24.150;2023-07-30T15:41:12;29.90;73.60
21518;DHT22;61765;45.794;24.150;2023-07-30T15:49:21;29.80;73.20
21518;DHT22;61765;45.794;24.150;2023-07-30T15:57:26;29.20;75.80
21518;DHT22;61765;45.794;24.150;2023-07-30T16:05:34;28.30;78.80
21518;DHT22;61765;45.794;24.150;2023-07-30T16:13:39;28.30;79.50
21518;DHT22;61765;45.794;24.150;2023-07-30T16:21:48;28.00;80.40
21518;DHT22;61765;45.794;24.150;2023-07-30T16:29:54;27.90;81.10
21518;DHT22;61765;45.794;24.150;2023-07-30T16:38:02;28.00;80.50
21518;DHT22;61765;45.794;24.150;2023-07-30T16:46:08;28.00;81.00
21518;DHT22;61765;45.794;24.150;2023-07-30T16:54:16;28.00;80.80
21518;DHT22;61765;45.794;24.150;2023-07-30T17:02:22;27.90;80.40
21518;DHT22;61765;45.794;24.150;2023-07-30T17:10:30;27.80;81.20
21518;DHT22;61765;45.794;24.150;2023-07-30T17:18:39;27.80;81.30
21518;DHT22;61765;45.794;24.150;2023-07-30T17:26:48;27.50;82.50
21518;DHT22;61765;45.794;24.150;2023-07-30T17:34:55;27.40;83.00
21518;DHT22;61765;45.794;24.150;2023-07-30T17:43:03;27.50;82.80
21518;DHT22;61765;45.794;24.150;2023-07-30T17:51:13;27.50;83.30
21518;DHT22;61765;45.794;24.150;2023-07-30T17:59:22;27.50;84.00
21518;DHT22;61765;45.794;24.150;2023-07-30T18:07:28;27.30;84.20
21518;DHT22;61765;45.794;24.150;2023-07-30T18:15:36;27.40;84.80
21518;DHT22;61765;45.794;24.150;2023-07-30T18:23:42;27.30;85.20
21518;DHT22;61765;45.794;24.150;2023-07-30T18:31:50;27.10;85.50
21518;DHT22;61765;45.794;24.150;2023-07-30T18:39:56;27.00;85.80
21518;DHT22;61765;45.794;24.150;2023-07-30T18:48:05;27.00;86.40
21518;DHT22;61765;45.794;24.150;2023-07-30T18:56:11;27.00;86.60
21518;DHT22;61765;45.794;24.150;2023-07-30T19:04:19;26.80;87.00
21518;DHT22;61765;45.794;24.150;2023-07-30T19:12:24;26.60;87.20
21518;DHT22;61765;45.794;24.150;2023-07-30T19:20:32;26.50;87.50
21518;DHT22;61765;45.794;24.150;2023-07-30T19:28:38;26.40;88.50
21518;DHT22;61765;45.794;24.150;2023-07-30T19:36:46;26.30;88.10
21518;DHT22;61765;45.794;24.150;2023-07-30T19:44:52;26.30;89.00
21518;DHT22;61765;45.794;24.150;2023-07-30T19:53:01;26.20;88.80
21518;DHT22;61765;45.794;24.150;2023-07-30T20:01:06;26.10;89.00
21518;DHT22;61765;45.794;24.150;2023-07-30T20:09:14;26.20;89.00
21518;DHT22;61765;45.794;24.150;2023-07-30T20:17:19;26.20;89.10
21518;DHT22;61765;45.794;24.150;2023-07-30T20:25:32;26.00;89.50
21518;DHT22;61765;45.794;24.150;2023-07-30T20:33:37;25.90;89.30
21518;DHT22;61765;45.794;24.150;2023-07-30T20:41:46;26.00;89.70
21518;DHT22;61765;45.794;24.150;2023-07-30T20:49:54;25.60;89.90
21518;DHT22;61765;45.794;24.150;2023-07-30T20:58:03;25.80;90.40
21518;DHT22;61765;45.794;24.150;2023-07-30T21:06:08;25.70;90.10
21518;DHT22;61765;45.794;24.150;2023-07-30T21:14:17;25.70;90.60
21518;DHT22;61765;45.794;24.150;2023-07-30T21:22:22;25.80;90.30
21518;DHT22;61765;45.794;24.150;2023-07-30T21:30:30;25.80;90.50
21518;DHT22;61765;45.794;24.150;2023-07-30T21:38:36;25.80;90.20
21518;DHT22;61765;45.794;24.150;2023-07-30T21:46:44;26.00;90.30
21518;DHT22;61765;45.794;24.150;2023-07-30T21:54:49;26.00;90.40
21518;DHT22;61765;45.794;24.150;2023-07-30T22:02:57;26.00;90.60
21518;DHT22;61765;45.794;24.150;2023-07-30T22:11:03;25.90;90.70
21518;DHT22;61765;45.794;24.150;2023-07-30T22:19:11;25.80;90.80
21518;DHT22;61765;45.794;24.150;2023-07-30T22:27:16;25.70;90.90
21518;DHT22;61765;45.794;24.150;2023-07-30T22:35:25;25.60;90.70
21518;DHT22;61765;45.794;24.150;2023-07-30T22:43:30;25.70;90.70
21518;DHT22;61765;45.794;24.150;2023-07-30T22:51:38;25.70;90.70
21518;DHT22;61765;45.794;24.150;2023-07-30T22:59:44;25.60;90.60
21518;DHT22;61765;45.794;24.150;2023-07-30T23:07:52;25.60;90.90
21518;DHT22;61765;45.794;24.150;2023-07-30T23:15:57;25.50;90.80
21518;DHT22;61765;45.794;24.150;2023-07-30T23:24:06;25.50;90.80
21518;DHT22;61765;45.794;24.150;2023-07-30T23:32:12;25.60;90.40
21518;DHT22;61765;45.794;24.150;2023-07-30T23:40:20;25.60;90.80
21518;DHT22;61765;45.794;24.150;2023-07-30T23:48:27;25.70;90.70
